createdAt,value
2019-02-08T00:00:48.173Z,95046.55
2019-02-08T00:03:21.339Z,95043.36
2019-02-08T00:05:54.603Z,95047.51
2019-02-08T00:08:27.783Z,95049.78
2019-02-08T00:11:00.841Z,95044.66
2019-02-08T00:13:34.280Z,95041.46
2019-02-08T00:16:07.429Z,95046.44
2019-02-08T00:18:40.405Z,95039.81
2019-02-08T00:21:13.311Z,95042.44
2019-02-08T00:23:46.691Z,95038.81
2019-02-08T00:26:19.524Z,95040.80
2019-02-08T00:28:52.570Z,95036.25
2019-02-08T00:31:25.646Z,95034.88
2019-02-08T00:33:58.689Z,95028.22
2019-02-08T00:36:31.944Z,95035.66
2019-02-08T00:39:07.704Z,95041.38
2019-02-08T00:41:40.691Z,95040.30
2019-02-08T00:44:13.982Z,95039.81
2019-02-08T00:46:46.944Z,95037.55
2019-02-08T00:49:19.736Z,95034.13
2019-02-08T00:51:52.692Z,95031.05
2019-02-08T00:54:25.803Z,95028.98
2019-02-08T00:56:58.748Z,95028.70
2019-02-08T00:59:31.638Z,95027.91
2019-02-08T01:02:04.563Z,95029.47
2019-02-08T01:04:37.686Z,95020.12
2019-02-08T01:07:10.774Z,95017.06
2019-02-08T01:09:43.746Z,95017.97
2019-02-08T01:12:16.842Z,95014.30
2019-02-08T01:14:51.459Z,95014.95
2019-02-08T01:17:24.447Z,95009.88
2019-02-08T01:19:57.685Z,95015.11
2019-02-08T01:22:31.543Z,95015.55
2019-02-08T01:25:05.966Z,95017.78
2019-02-08T01:27:39.189Z,95022.39
2019-02-08T01:30:16.092Z,95020.63
2019-02-08T01:32:49.087Z,95019.86
2019-02-08T01:35:22.971Z,95019.66
2019-02-08T01:37:57.016Z,95020.73
2019-02-08T01:40:33.367Z,95021.94
2019-02-08T01:46:02.048Z,95014.68
2019-02-08T01:48:34.966Z,95016.64
2019-02-08T01:54:07.493Z,95019.83
2019-02-08T01:56:40.582Z,95017.08
2019-02-08T01:59:15.181Z,95012.53
2019-02-08T02:01:48.274Z,95017.07
2019-02-08T02:04:21.119Z,95017.21
2019-02-08T02:06:54.275Z,95014.31
2019-02-08T02:09:27.691Z,95012.44
2019-02-08T02:12:00.830Z,95012.08
2019-02-08T02:14:34.333Z,95006.84
2019-02-08T02:17:07.438Z,95009.75
2019-02-08T02:19:40.581Z,95010.89
2019-02-08T02:22:14.047Z,95007.30
2019-02-08T02:24:47.186Z,95009.69
2019-02-08T02:27:20.463Z,95007.20
2019-02-08T02:29:53.942Z,95003.25
2019-02-08T02:32:28.271Z,94999.13
2019-02-08T02:35:01.385Z,95000.84
2019-02-08T02:37:34.318Z,94999.93
2019-02-08T02:40:09.557Z,95001.59
2019-02-08T02:42:42.534Z,95000.45
2019-02-08T02:45:25.891Z,95008.13
2019-02-08T02:47:58.799Z,95004.47
2019-02-08T02:50:31.927Z,95009.16
2019-02-08T02:53:05.202Z,95004.73
2019-02-08T02:55:38.197Z,95004.45
2019-02-08T02:58:11.448Z,94999.13
2019-02-08T03:00:50.499Z,94996.69
2019-02-08T03:03:24.740Z,94994.20
2019-02-08T03:05:57.439Z,94991.09
2019-02-08T03:08:29.987Z,94991.61
2019-02-08T03:11:04.311Z,94985.56
2019-02-08T03:13:37.008Z,94977.73
2019-02-08T03:16:10.029Z,94971.23
2019-02-08T03:18:42.943Z,94978.00
2019-02-08T03:21:15.937Z,94974.80
2019-02-08T03:23:49.946Z,94971.14
2019-02-08T03:26:22.838Z,94967.56
2019-02-08T03:28:57.025Z,94973.83
2019-02-08T03:31:29.913Z,94968.66
2019-02-08T03:34:02.581Z,94972.16
2019-02-08T03:36:35.542Z,94962.99
2019-02-08T03:39:10.861Z,94959.64
2019-02-08T03:41:43.719Z,94957.63
2019-02-08T03:44:17.543Z,94955.61
2019-02-08T03:46:50.524Z,94952.95
2019-02-08T03:49:23.534Z,94943.45
2019-02-08T03:51:56.542Z,94935.44
2019-02-08T03:54:30.360Z,94932.93
2019-02-08T03:57:03.240Z,94936.08
2019-02-08T03:59:37.599Z,94937.60
2019-02-08T04:02:10.377Z,94935.77
2019-02-08T04:04:43.800Z,94936.67
2019-02-08T04:07:17.430Z,94935.62
2019-02-08T04:09:50.434Z,94938.38
2019-02-08T04:12:23.158Z,94931.98
2019-02-08T04:14:56.119Z,94931.67
2019-02-08T04:17:29.161Z,94925.71
2019-02-08T04:20:02.092Z,94932.28
2019-02-08T04:22:34.926Z,94934.59
2019-02-08T04:25:09.657Z,94931.80
2019-02-08T04:27:42.384Z,94932.97
2019-02-08T04:30:28.935Z,94924.75
2019-02-08T04:33:02.426Z,94928.58
2019-02-08T04:35:35.664Z,94927.39
2019-02-08T04:38:08.712Z,94930.42
2019-02-08T04:40:41.582Z,94937.98
2019-02-08T04:43:14.391Z,94941.98
2019-02-08T04:45:47.126Z,94945.97
2019-02-08T04:48:20.263Z,94946.02
2019-02-08T04:50:52.944Z,94942.09
2019-02-08T04:53:25.898Z,94936.49
2019-02-08T04:56:08.508Z,94942.59
2019-02-08T04:58:41.601Z,94939.02
2019-02-08T05:01:14.378Z,94940.52
2019-02-08T05:03:47.115Z,94935.86
2019-02-08T05:06:20.011Z,94938.23
2019-02-08T05:08:53.071Z,94937.44
2019-02-08T05:11:26.196Z,94948.88
2019-02-08T05:13:59.431Z,94957.88
2019-02-08T05:16:32.697Z,94956.23
2019-02-08T05:19:05.886Z,94959.48
2019-02-08T05:21:38.994Z,94962.48
2019-02-08T05:24:11.938Z,94966.01
2019-02-08T05:26:44.861Z,94967.11
2019-02-08T05:29:19.567Z,94968.98
2019-02-08T05:31:52.817Z,94968.59
2019-02-08T05:34:26.158Z,94976.97
2019-02-08T05:36:59.083Z,94970.86
2019-02-08T05:39:32.087Z,94975.95
2019-02-08T05:42:05.180Z,94976.36
2019-02-08T05:44:38.229Z,94984.84
2019-02-08T05:47:11.470Z,94990.52
2019-02-08T05:49:44.626Z,94984.69
2019-02-08T05:52:17.568Z,94990.23
2019-02-08T05:54:54.461Z,94987.91
2019-02-08T05:57:25.120Z,94989.56
2019-02-08T05:59:57.842Z,94994.09
2019-02-08T06:02:31.114Z,94994.83
2019-02-08T06:05:04.419Z,94990.27
2019-02-08T06:07:37.561Z,94989.75
2019-02-08T06:10:12.270Z,94989.38
2019-02-08T06:12:45.172Z,94995.98
2019-02-08T06:15:20.115Z,94994.45
2019-02-08T06:17:53.204Z,94994.42
2019-02-08T06:20:26.883Z,95000.22
2019-02-08T06:23:00.119Z,94998.27
2019-02-08T06:25:33.049Z,95001.63
2019-02-08T06:28:07.495Z,95006.16
2019-02-08T06:30:40.662Z,95011.11
2019-02-08T06:33:13.707Z,95008.36
2019-02-08T06:35:46.804Z,95010.50
2019-02-08T06:38:19.836Z,95015.50
2019-02-08T06:40:52.699Z,95012.52
2019-02-08T06:43:25.592Z,95016.04
2019-02-08T06:45:58.837Z,95015.13
2019-02-08T06:48:32.195Z,95018.85
2019-02-08T06:51:05.339Z,95015.87
2019-02-08T06:53:38.158Z,95014.50
2019-02-08T06:56:29.925Z,95012.72
2019-02-08T06:59:38.410Z,95014.46
2019-02-08T07:02:30.140Z,95006.61
2019-02-08T07:05:19.290Z,95003.13
2019-02-08T07:08:14.152Z,94998.65
2019-02-08T07:11:05.798Z,95004.67
2019-02-08T07:14:00.854Z,95002.56
2019-02-08T07:16:41.866Z,95009.13
2019-02-08T07:19:46.380Z,95011.56
2019-02-08T07:22:40.925Z,95009.85
2019-02-08T07:25:36.117Z,95005.73
2019-02-08T07:28:19.464Z,95009.11
2019-02-08T07:31:05.243Z,95015.23
2019-02-08T07:33:56.659Z,95018.55
2019-02-08T07:37:07.193Z,95017.98
2019-02-08T07:39:56.700Z,95017.51
2019-02-08T07:42:55.694Z,95023.52
2019-02-08T07:45:53.335Z,95029.49
2019-02-08T07:48:49.359Z,95030.71
2019-02-08T07:51:32.079Z,95034.66
2019-02-08T07:54:17.431Z,95035.44
2019-02-08T07:57:14.159Z,95035.12
2019-02-08T08:00:04.100Z,95029.92
2019-02-08T08:03:14.696Z,95036.83
2019-02-08T08:06:09.464Z,95029.19
2019-02-08T08:09:00.168Z,95030.22
2019-02-08T08:11:51.996Z,95034.34
2019-02-08T08:15:00.346Z,95036.06
2019-02-08T08:17:52.192Z,95037.92
2019-02-08T08:20:51.621Z,95040.08
2019-02-08T08:23:36.767Z,95038.98
2019-02-08T08:26:38.491Z,95043.01
2019-02-08T08:29:33.437Z,95042.42
2019-02-08T08:32:32.415Z,95044.57
2019-02-08T08:35:51.147Z,95046.05
2019-02-08T08:39:35.018Z,95039.79
2019-02-08T08:43:00.002Z,95040.38
2019-02-08T08:46:16.253Z,95035.38
2019-02-08T08:50:06.832Z,95041.25
2019-02-08T08:53:31.890Z,95050.38
2019-02-08T08:57:09.493Z,95048.15
2019-02-08T09:00:38.113Z,95052.63
2019-02-08T09:04:07.876Z,95064.52
2019-02-08T09:07:55.505Z,95059.95
2019-02-08T09:11:26.375Z,95060.14
2019-02-08T09:14:55.829Z,95073.69
2019-02-08T09:18:28.855Z,95065.55
2019-02-08T09:22:10.108Z,95067.42
2019-02-08T09:26:00.963Z,95067.11
2019-02-08T09:29:50.977Z,95071.92
2019-02-08T09:33:20.827Z,95070.47
2019-02-08T09:36:47.465Z,95062.44
2019-02-08T09:40:23.323Z,95067.05
2019-02-08T09:43:58.052Z,95066.77
2019-02-08T09:47:35.098Z,95060.13
2019-02-08T09:51:05.004Z,95062.23
2019-02-08T09:54:48.774Z,95061.23
2019-02-08T09:57:32.999Z,95055.03
2019-02-08T10:00:55.221Z,95055.16
2019-02-08T10:04:13.511Z,95058.76
2019-02-08T10:07:43.043Z,95052.77
2019-02-08T10:11:07.332Z,95064.13
2019-02-08T10:14:49.059Z,95059.52
2019-02-08T10:18:23.907Z,95055.72
2019-02-08T10:21:58.220Z,95054.81
2019-02-08T10:26:05.048Z,95052.30
2019-02-08T10:29:48.995Z,95056.87
2019-02-08T10:33:25.988Z,95056.84
2019-02-08T10:36:53.082Z,95057.35
2019-02-08T10:40:28.061Z,95058.16
2019-02-08T10:44:21.148Z,95062.03
2019-02-08T10:48:26.265Z,95059.73
2019-02-08T10:52:03.563Z,95053.80
2019-02-08T10:55:35.033Z,95045.91
2019-02-08T10:59:18.464Z,95041.63
2019-02-08T11:02:47.844Z,95042.28
2019-02-08T11:06:38.157Z,95042.05
2019-02-08T11:10:15.879Z,95035.05
2019-02-08T11:13:41.597Z,95040.36
2019-02-08T11:17:08.493Z,95037.98
2019-02-08T11:19:38.497Z,95038.05
2019-02-08T11:22:11.390Z,95037.86
2019-02-08T11:24:44.643Z,95042.17
2019-02-08T11:27:17.757Z,95039.04
2019-02-08T11:29:50.997Z,95036.16
2019-02-08T11:32:28.666Z,95031.21
2019-02-08T11:35:00.208Z,95029.83
2019-02-08T11:37:33.078Z,95029.08
2019-02-08T11:40:09.900Z,95026.92
2019-02-08T11:42:43.412Z,95027.58
2019-02-08T11:45:16.776Z,95029.36
2019-02-08T11:47:50.150Z,95022.58
2019-02-08T11:50:24.149Z,95029.80
2019-02-08T11:52:57.015Z,95029.00
2019-02-08T11:55:31.207Z,95031.97
2019-02-08T11:58:04.285Z,95029.00
2019-02-08T12:00:40.645Z,95025.41
2019-02-08T12:03:13.955Z,95025.47
2019-02-08T12:05:47.348Z,95019.33
2019-02-08T12:08:20.639Z,95022.73
2019-02-08T12:10:54.071Z,95019.69
2019-02-08T12:13:27.232Z,95019.86
2019-02-08T12:16:00.830Z,95027.30
2019-02-08T12:18:33.935Z,95026.92
2019-02-08T12:21:07.184Z,95026.75
2019-02-08T12:23:40.232Z,95025.20
2019-02-08T12:26:13.504Z,95023.41
2019-02-08T12:28:46.821Z,95021.17
2019-02-08T12:31:20.055Z,95018.33
2019-02-08T12:33:53.919Z,95022.62
2019-02-08T12:36:27.194Z,95020.55
2019-02-08T12:39:00.189Z,95018.31
2019-02-08T12:41:35.011Z,95028.97
2019-02-08T12:44:09.042Z,95022.18
2019-02-08T12:46:42.018Z,95017.72
2019-02-08T12:49:15.310Z,95017.85
2019-02-08T12:51:48.651Z,95014.74
2019-02-08T12:54:21.835Z,95015.33
2019-02-08T12:56:54.901Z,95016.56
2019-02-08T12:59:27.829Z,95016.17
2019-02-08T13:02:00.659Z,95018.89
2019-02-08T13:04:33.649Z,95013.92
2019-02-08T13:07:07.315Z,95013.43
2019-02-08T13:09:40.683Z,95016.86
2019-02-08T13:12:14.553Z,95023.79
2019-02-08T13:14:48.344Z,95019.38
2019-02-08T13:17:21.680Z,95020.77
2019-02-08T13:19:54.907Z,95017.17
2019-02-08T13:22:28.148Z,95013.45
2019-02-08T13:25:01.491Z,95012.43
2019-02-08T13:27:34.596Z,95012.42
2019-02-08T13:30:22.923Z,95012.52
2019-02-08T13:32:56.521Z,95018.53
2019-02-08T13:35:30.188Z,95019.30
2019-02-08T13:38:04.859Z,95018.95
2019-02-08T13:40:37.932Z,95021.97
2019-02-08T13:43:11.026Z,95019.86
2019-02-08T13:45:44.376Z,95020.62
2019-02-08T13:48:17.770Z,95016.50
2019-02-08T13:50:51.015Z,95014.52
2019-02-08T13:53:25.161Z,95011.48
2019-02-08T13:55:58.323Z,95010.93
2019-02-08T13:58:31.242Z,95004.95
2019-02-08T14:01:04.461Z,95012.23
2019-02-08T14:03:37.655Z,95005.03
2019-02-08T14:06:11.080Z,95004.52
2019-02-08T14:08:47.578Z,95001.92
2019-02-08T14:11:20.574Z,95006.01
2019-02-08T14:13:53.877Z,95001.17
2019-02-08T14:16:28.895Z,95004.20
2019-02-08T14:19:02.296Z,95004.25
2019-02-08T14:21:35.391Z,95007.40
2019-02-08T14:24:09.109Z,95009.23
2019-02-08T14:26:42.421Z,95011.63
2019-02-08T14:29:15.716Z,95005.72
2019-02-08T14:31:49.342Z,95012.70
2019-02-08T14:34:22.554Z,95013.31
2019-02-08T14:36:55.894Z,95012.44
2019-02-08T14:39:29.261Z,95011.25
2019-02-08T14:42:02.613Z,95020.05
2019-02-08T14:44:36.502Z,95026.02
2019-02-08T14:47:10.347Z,95024.47
2019-02-08T14:49:43.701Z,95021.17
2019-02-08T14:52:17.301Z,95023.68
2019-02-08T14:54:50.848Z,95019.61
2019-02-08T14:57:24.403Z,95017.20
2019-02-08T14:59:58.235Z,95021.77
2019-02-08T15:02:33.446Z,95021.03
2019-02-08T15:05:08.901Z,95024.23
2019-02-08T15:07:42.271Z,95025.38
2019-02-08T15:10:23.635Z,95028.62
2019-02-08T15:12:56.974Z,95028.47
2019-02-08T15:15:30.663Z,95028.62
2019-02-08T15:18:04.400Z,95024.66
2019-02-08T15:20:37.928Z,95031.42
2019-02-08T15:23:11.075Z,95030.77
2019-02-08T15:25:44.629Z,95027.16
2019-02-08T15:28:18.186Z,95027.77
2019-02-08T15:30:53.114Z,95024.90
2019-02-08T15:33:27.105Z,95025.38
2019-02-08T15:36:00.238Z,95032.20
2019-02-08T15:38:33.657Z,95032.53
2019-02-08T15:41:07.218Z,95030.31
2019-02-08T15:43:40.862Z,95032.17
2019-02-08T15:46:14.486Z,95044.48
2019-02-08T15:48:49.166Z,95043.78
2019-02-08T15:51:22.610Z,95040.08
2019-02-08T15:53:55.657Z,95048.31
2019-02-08T15:56:30.050Z,95050.02
2019-02-08T15:59:03.475Z,95048.45
2019-02-08T16:01:37.121Z,95047.79
2019-02-08T16:04:16.983Z,95046.33
2019-02-08T16:06:50.301Z,95047.03
2019-02-08T16:09:23.627Z,95046.68
2019-02-08T16:11:57.639Z,95049.45
2019-02-08T16:14:31.052Z,95054.52
2019-02-08T16:17:04.621Z,95061.44
2019-02-08T16:19:38.159Z,95058.86
2019-02-08T16:22:11.887Z,95062.62
2019-02-08T16:24:45.541Z,95066.38
2019-02-08T16:27:19.419Z,95064.17
2019-02-08T16:29:52.979Z,95071.59
2019-02-08T16:32:26.080Z,95063.14
2019-02-08T16:35:01.436Z,95070.08
2019-02-08T16:37:35.030Z,95068.79
2019-02-08T16:40:12.010Z,95074.94
2019-02-08T16:42:48.024Z,95074.91
2019-02-08T16:45:25.219Z,95077.36
2019-02-08T16:48:00.714Z,95075.75
2019-02-08T16:50:35.047Z,95075.56
2019-02-08T16:53:09.740Z,95077.76
2019-02-08T16:55:43.315Z,95076.50
2019-02-08T16:58:16.540Z,95080.92
2019-02-08T17:00:50.259Z,95078.47
2019-02-08T17:03:23.488Z,95076.70
2019-02-08T17:05:57.083Z,95081.45
2019-02-08T17:08:30.313Z,95083.07
2019-02-08T17:11:03.899Z,95078.01
2019-02-08T17:13:37.626Z,95085.88
2019-02-08T17:16:10.905Z,95091.61
2019-02-08T17:18:44.226Z,95096.55
2019-02-08T17:21:17.704Z,95105.61
2019-02-08T17:23:51.351Z,95099.73
2019-02-08T17:26:24.884Z,95099.52
2019-02-08T17:28:58.212Z,95104.66
2019-02-08T17:31:31.499Z,95100.69
2019-02-08T17:34:05.265Z,95100.59
2019-02-08T17:36:38.831Z,95108.15
2019-02-08T17:39:14.667Z,95105.56
2019-02-08T17:41:48.051Z,95102.89
2019-02-08T17:44:21.550Z,95111.93
2019-02-08T17:46:55.049Z,95118.67
2019-02-08T17:49:28.117Z,95119.16
2019-02-08T17:52:01.966Z,95120.12
2019-02-08T17:54:35.609Z,95121.74
2019-02-08T17:57:08.621Z,95121.09
2019-02-08T17:59:41.759Z,95120.23
2019-02-08T18:02:14.980Z,95128.72
2019-02-08T18:04:49.919Z,95128.29
2019-02-08T18:07:23.481Z,95130.34
2019-02-08T18:09:57.137Z,95134.70
2019-02-08T18:12:32.441Z,95132.11
2019-02-08T18:15:07.016Z,95128.89
2019-02-08T18:17:42.209Z,95133.20
2019-02-08T18:20:30.568Z,95134.75
2019-02-08T18:23:05.504Z,95132.69
2019-02-08T18:25:38.930Z,95137.25
2019-02-08T18:28:12.417Z,95140.64
2019-02-08T18:30:45.437Z,95137.59
2019-02-08T18:33:18.819Z,95143.08
2019-02-08T18:35:53.036Z,95135.45
2019-02-08T18:38:26.713Z,95140.73
2019-02-08T18:41:00.335Z,95143.81
2019-02-08T18:43:35.289Z,95139.55
2019-02-08T18:46:08.678Z,95139.25
2019-02-08T18:48:42.247Z,95137.58
2019-02-08T18:51:16.507Z,95135.51
2019-02-08T18:53:49.662Z,95140.06
2019-02-08T18:56:24.666Z,95140.80
2019-02-08T18:58:59.672Z,95146.34
2019-02-08T19:01:33.291Z,95141.64
2019-02-08T19:04:07.883Z,95147.58
2019-02-08T19:06:41.048Z,95152.98
2019-02-08T19:09:14.509Z,95158.09
2019-02-08T19:11:48.091Z,95154.55
2019-02-08T19:14:22.320Z,95150.48
2019-02-08T19:16:56.060Z,95157.93
2019-02-08T19:19:29.843Z,95155.38
2019-02-08T19:22:03.523Z,95160.73
2019-02-08T19:24:40.153Z,95161.34
2019-02-08T19:27:16.537Z,95158.30
2019-02-08T19:29:50.070Z,95162.80
2019-02-08T19:32:23.262Z,95170.16
2019-02-08T19:34:56.856Z,95168.13
2019-02-08T19:37:30.097Z,95173.25
2019-02-08T19:40:03.818Z,95173.73
2019-02-08T19:42:37.001Z,95177.75
2019-02-08T19:45:12.849Z,95181.44
2019-02-08T19:47:46.759Z,95183.18
2019-02-08T19:50:32.267Z,95186.58
2019-02-08T19:53:08.238Z,95181.67
2019-02-08T19:55:44.497Z,95185.72
2019-02-08T19:58:17.836Z,95189.13
2019-02-08T20:00:51.305Z,95193.64
2019-02-08T20:03:25.177Z,95189.11
2019-02-08T20:06:00.116Z,95193.78
2019-02-08T20:08:36.214Z,95192.60
2019-02-08T20:11:09.552Z,95200.84
2019-02-08T20:17:00.285Z,95200.33
2019-02-08T20:19:34.217Z,95199.16
2019-02-08T20:22:09.397Z,95203.02
2019-02-08T20:24:42.780Z,95195.47
2019-02-08T20:27:15.950Z,95197.33
2019-02-08T20:29:49.071Z,95208.50
2019-02-08T20:32:22.509Z,95196.26
2019-02-08T20:34:55.552Z,95198.20
2019-02-08T20:37:29.169Z,95195.95
2019-02-08T20:40:02.427Z,95196.77
2019-02-08T20:42:35.846Z,95189.14
2019-02-08T20:45:14.461Z,95189.52
2019-02-08T20:47:47.618Z,95190.48
2019-02-08T20:50:23.948Z,95188.53
2019-02-08T20:52:58.203Z,95189.64
2019-02-08T20:55:32.442Z,95191.02
2019-02-08T20:58:07.575Z,95187.34
2019-02-08T21:03:17.180Z,95186.87
2019-02-08T21:05:51.000Z,95183.02
2019-02-08T21:08:24.700Z,95183.03
2019-02-08T21:11:02.629Z,95185.81
2019-02-08T21:13:37.503Z,95185.81
2019-02-08T21:16:11.188Z,95181.30
2019-02-08T21:18:44.625Z,95183.48
2019-02-08T21:21:18.377Z,95184.07
2019-02-08T21:23:51.655Z,95185.31
2019-02-08T21:26:24.877Z,95180.40
2019-02-08T21:28:58.397Z,95185.61
2019-02-08T21:31:31.630Z,95182.91
2019-02-08T21:34:04.588Z,95187.19
2019-02-08T21:36:39.132Z,95192.64
2019-02-08T21:39:12.644Z,95193.91
2019-02-08T21:41:47.215Z,95192.02
2019-02-08T21:44:20.531Z,95193.38
2019-02-08T21:46:53.700Z,95192.97
2019-02-08T21:49:26.783Z,95198.16
2019-02-08T21:52:00.191Z,95200.13
2019-02-08T21:54:34.075Z,95191.14
2019-02-08T21:57:07.147Z,95193.81
2019-02-08T21:59:40.778Z,95195.17
2019-02-08T22:02:14.098Z,95199.06
2019-02-08T22:04:47.051Z,95200.58
2019-02-08T22:07:20.374Z,95203.94
2019-02-08T22:09:53.324Z,95198.23
2019-02-08T22:12:26.659Z,95202.49
2019-02-08T22:15:00.189Z,95195.84
2019-02-08T22:17:33.386Z,95198.05
2019-02-08T22:20:08.283Z,95195.64
2019-02-08T22:22:41.069Z,95200.23
2019-02-08T22:25:16.730Z,95199.20
2019-02-08T22:27:49.934Z,95201.25
2019-02-08T22:30:24.517Z,95206.64
2019-02-08T22:32:59.248Z,95208.61
2019-02-08T22:35:32.416Z,95209.17
2019-02-08T22:38:05.871Z,95210.69
2019-02-08T22:40:39.414Z,95209.19
2019-02-08T22:43:12.558Z,95209.48
2019-02-08T22:45:45.771Z,95205.16
2019-02-08T22:48:18.688Z,95204.16
2019-02-08T22:50:51.501Z,95210.27
2019-02-08T22:53:24.697Z,95212.67
2019-02-08T22:55:57.361Z,95208.95
2019-02-08T22:58:30.235Z,95202.20
2019-02-08T23:01:30.822Z,95204.61
2019-02-08T23:04:08.475Z,95207.56
2019-02-08T23:06:44.847Z,95205.77
2019-02-08T23:09:26.654Z,95206.13
2019-02-08T23:11:59.748Z,95201.57
2019-02-08T23:14:32.597Z,95205.16
2019-02-08T23:17:05.971Z,95203.80
2019-02-08T23:19:39.123Z,95205.42
2019-02-08T23:22:12.065Z,95204.47
2019-02-08T23:24:44.970Z,95203.81
2019-02-08T23:27:17.873Z,95206.05
2019-02-08T23:29:50.784Z,95203.16
2019-02-08T23:32:23.500Z,95206.39
2019-02-08T23:34:56.497Z,95201.88
2019-02-08T23:37:29.317Z,95198.22
2019-02-08T23:40:02.161Z,95196.75
2019-02-08T23:42:35.109Z,95189.38
2019-02-08T23:45:09.390Z,95194.69
2019-02-08T23:47:42.519Z,95193.44
2019-02-08T23:50:15.421Z,95191.45
2019-02-08T23:52:48.841Z,95189.86
2019-02-08T23:55:23.577Z,95193.54
2019-02-08T23:57:56.695Z,95193.20
